Forside
METAR-TAF:

METAR-TAF

Lufthavne :

Price County Airport

Phillips, Wisconsin, USA

Breddekreds: 45-42N, længdekreds: 090-24W, højde: 449 m

Aktuelle vejr

Denne rapport blev lavet for 12 minutter siden, kl. 16:35 UTC
Vind 9 kt fra sydvest med vindstød på up til 15 kt
Temperatur 3°C
Fugtighed 65%
Tryk 1006 hPa
Sigt: 16.1 km
skyfri

METAR: KPBH 231635Z AUTO 23009G15KT 10SM CLR 03/M03 A2971 RMK AO2 T00251032

Tid: 10:47 (16:47 UTC)


TAF: fraværende

Vejrobservationer og prognoser fra mere end 4000 lufthavne (METAR og TAF).

De gule og røde prikker repræsenterer de meteorologiske stationer.

Flyt musen over at se navnet på stationen.

Så klik over at se vejr observationer og prognoser.

At skifte det kort: Klik på de grønne knapper med et sort kors for at zoome ind; på den grønne knap med en bindestreg for at zoome ud; eller på de grønne pile for tilstødende kort.


METAR-TAF: